sensor_id;sensor_type;location;lat;lon;timestamp;P1;durP1;ratioP1;P2;durP2;ratioP2
23782;SDS011;12071;50.850;4.446;2023-08-01T00:02:20;5.32;;;1.85;;
23782;SDS011;12071;50.850;4.446;2023-08-01T00:04:45;3.38;;;1.98;;
23782;SDS011;12071;50.850;4.446;2023-08-01T00:07:11;5.70;;;2.05;;
23782;SDS011;12071;50.850;4.446;2023-08-01T00:09:37;4.75;;;1.65;;
23782;SDS011;12071;50.850;4.446;2023-08-01T00:12:02;5.25;;;1.60;;
23782;SDS011;12071;50.850;4.446;2023-08-01T00:14:28;4.25;;;1.83;;
23782;SDS011;12071;50.850;4.446;2023-08-01T00:16:53;3.05;;;1.60;;
23782;SDS011;12071;50.850;4.446;2023-08-01T00:19:19;4.65;;;2.00;;
23782;SDS011;12071;50.850;4.446;2023-08-01T00:21:45;4.03;;;2.10;;
23782;SDS011;12071;50.850;4.446;2023-08-01T00:24:11;4.32;;;1.85;;
23782;SDS011;12071;50.850;4.446;2023-08-01T00:26:37;3.58;;;1.80;;
23782;SDS011;12071;50.850;4.446;2023-08-01T00:29:03;3.30;;;1.98;;
23782;SDS011;12071;50.850;4.446;2023-08-01T00:31:28;3.88;;;2.13;;
23782;SDS011;12071;50.850;4.446;2023-08-01T00:33:54;6.22;;;2.45;;
23782;SDS011;12071;50.850;4.446;2023-08-01T00:36:19;5.90;;;2.25;;
23782;SDS011;12071;50.850;4.446;2023-08-01T00:38:45;4.50;;;2.20;;
23782;SDS011;12071;50.850;4.446;2023-08-01T00:41:10;4.65;;;2.15;;
23782;SDS011;12071;50.850;4.446;2023-08-01T00:43:36;3.38;;;2.10;;
23782;SDS011;12071;50.850;4.446;2023-08-01T00:46:03;2.50;;;2.05;;
23782;SDS011;12071;50.850;4.446;2023-08-01T00:48:30;4.47;;;2.20;;
23782;SDS011;12071;50.850;4.446;2023-08-01T00:50:57;3.50;;;2.13;;
23782;SDS011;12071;50.850;4.446;2023-08-01T00:53:24;3.45;;;2.20;;
23782;SDS011;12071;50.850;4.446;2023-08-01T00:55:51;7.53;;;2.20;;
23782;SDS011;12071;50.850;4.446;2023-08-01T00:58:20;4.53;;;2.50;;
23782;SDS011;12071;50.850;4.446;2023-08-01T01:00:46;9.95;;;2.63;;
23782;SDS011;12071;50.850;4.446;2023-08-01T01:03:13;2.83;;;2.30;;
23782;SDS011;12071;50.850;4.446;2023-08-01T01:05:46;4.53;;;2.15;;
23782;SDS011;12071;50.850;4.446;2023-08-01T01:08:26;6.60;;;2.95;;
23782;SDS011;12071;50.850;4.446;2023-08-01T01:10:51;6.15;;;2.80;;
23782;SDS011;12071;50.850;4.446;2023-08-01T01:13:17;7.90;;;2.92;;
23782;SDS011;12071;50.850;4.446;2023-08-01T01:15:42;5.45;;;2.78;;
23782;SDS011;12071;50.850;4.446;2023-08-01T01:18:08;5.22;;;2.60;;
23782;SDS011;12071;50.850;4.446;2023-08-01T01:20:34;5.25;;;3.38;;
23782;SDS011;12071;50.850;4.446;2023-08-01T01:23:00;7.35;;;4.15;;
23782;SDS011;12071;50.850;4.446;2023-08-01T01:25:28;8.25;;;3.00;;
23782;SDS011;12071;50.850;4.446;2023-08-01T01:27:56;7.15;;;3.28;;
23782;SDS011;12071;50.850;4.446;2023-08-01T01:30:22;6.30;;;3.08;;
23782;SDS011;12071;50.850;4.446;2023-08-01T01:32:49;4.97;;;3.22;;
23782;SDS011;12071;50.850;4.446;2023-08-01T01:35:16;4.63;;;3.20;;
23782;SDS011;12071;50.850;4.446;2023-08-01T01:37:41;7.13;;;3.90;;
23782;SDS011;12071;50.850;4.446;2023-08-01T01:40:07;9.30;;;3.20;;
23782;SDS011;12071;50.850;4.446;2023-08-01T01:42:33;7.38;;;3.40;;
23782;SDS011;12071;50.850;4.446;2023-08-01T01:44:59;11.65;;;4.28;;
23782;SDS011;12071;50.850;4.446;2023-08-01T01:47:25;7.20;;;3.90;;
23782;SDS011;12071;50.850;4.446;2023-08-01T01:49:50;7.85;;;4.10;;
23782;SDS011;12071;50.850;4.446;2023-08-01T01:52:16;9.32;;;3.88;;
23782;SDS011;12071;50.850;4.446;2023-08-01T01:54:41;11.40;;;4.40;;
23782;SDS011;12071;50.850;4.446;2023-08-01T01:57:07;7.03;;;4.53;;
23782;SDS011;12071;50.850;4.446;2023-08-01T01:59:33;8.77;;;4.20;;
23782;SDS011;12071;50.850;4.446;2023-08-01T02:01:58;9.90;;;4.57;;
23782;SDS011;12071;50.850;4.446;2023-08-01T02:04:24;7.03;;;4.60;;
23782;SDS011;12071;50.850;4.446;2023-08-01T02:06:50;9.43;;;4.47;;
23782;SDS011;12071;50.850;4.446;2023-08-01T02:09:18;8.10;;;4.10;;
23782;SDS011;12071;50.850;4.446;2023-08-01T02:11:44;8.77;;;4.53;;
23782;SDS011;12071;50.850;4.446;2023-08-01T02:14:09;11.35;;;4.50;;
23782;SDS011;12071;50.850;4.446;2023-08-01T02:16:35;9.65;;;4.75;;
23782;SDS011;12071;50.850;4.446;2023-08-01T02:19:00;10.57;;;4.70;;
23782;SDS011;12071;50.850;4.446;2023-08-01T02:21:26;11.57;;;4.35;;
23782;SDS011;12071;50.850;4.446;2023-08-01T02:23:51;8.52;;;4.53;;
23782;SDS011;12071;50.850;4.446;2023-08-01T02:26:17;9.85;;;4.78;;
23782;SDS011;12071;50.850;4.446;2023-08-01T02:28:43;9.75;;;4.38;;
23782;SDS011;12071;50.850;4.446;2023-08-01T02:31:08;10.85;;;5.00;;
23782;SDS011;12071;50.850;4.446;2023-08-01T02:33:34;11.93;;;4.50;;
23782;SDS011;12071;50.850;4.446;2023-08-01T02:36:00;7.40;;;5.20;;
23782;SDS011;12071;50.850;4.446;2023-08-01T02:38:25;9.52;;;5.03;;
23782;SDS011;12071;50.850;4.446;2023-08-01T02:40:51;8.30;;;5.00;;
23782;SDS011;12071;50.850;4.446;2023-08-01T02:43:16;10.35;;;5.47;;
23782;SDS011;12071;50.850;4.446;2023-08-01T02:45:42;10.80;;;5.22;;
23782;SDS011;12071;50.850;4.446;2023-08-01T02:48:07;10.90;;;5.00;;
23782;SDS011;12071;50.850;4.446;2023-08-01T02:50:33;11.52;;;5.47;;
23782;SDS011;12071;50.850;4.446;2023-08-01T02:52:59;12.57;;;5.60;;
23782;SDS011;12071;50.850;4.446;2023-08-01T02:55:24;11.25;;;5.78;;
23782;SDS011;12071;50.850;4.446;2023-08-01T02:57:50;10.73;;;5.68;;
23782;SDS011;12071;50.850;4.446;2023-08-01T03:00:15;10.68;;;5.47;;
23782;SDS011;12071;50.850;4.446;2023-08-01T03:02:42;12.65;;;5.85;;
23782;SDS011;12071;50.850;4.446;2023-08-01T03:05:08;9.98;;;5.88;;
23782;SDS011;12071;50.850;4.446;2023-08-01T03:07:34;17.48;;;5.60;;
23782;SDS011;12071;50.850;4.446;2023-08-01T03:10:00;14.95;;;6.13;;
23782;SDS011;12071;50.850;4.446;2023-08-01T03:12:25;11.82;;;6.47;;
23782;SDS011;12071;50.850;4.446;2023-08-01T03:14:52;15.10;;;6.53;;
23782;SDS011;12071;50.850;4.446;2023-08-01T03:17:17;14.93;;;6.63;;
23782;SDS011;12071;50.850;4.446;2023-08-01T03:19:43;16.35;;;7.15;;
23782;SDS011;12071;50.850;4.446;2023-08-01T03:22:12;11.55;;;6.25;;
23782;SDS011;12071;50.850;4.446;2023-08-01T03:24:37;12.70;;;6.20;;
23782;SDS011;12071;50.850;4.446;2023-08-01T03:27:03;19.33;;;7.10;;
23782;SDS011;12071;50.850;4.446;2023-08-01T03:29:29;14.75;;;7.15;;
23782;SDS011;12071;50.850;4.446;2023-08-01T03:31:54;16.35;;;6.63;;
23782;SDS011;12071;50.850;4.446;2023-08-01T03:34:20;16.00;;;6.55;;
23782;SDS011;12071;50.850;4.446;2023-08-01T03:36:45;17.65;;;6.22;;
23782;SDS011;12071;50.850;4.446;2023-08-01T03:39:11;16.40;;;7.00;;
23782;SDS011;12071;50.850;4.446;2023-08-01T03:41:37;15.55;;;6.28;;
23782;SDS011;12071;50.850;4.446;2023-08-01T03:44:03;14.40;;;6.53;;
23782;SDS011;12071;50.850;4.446;2023-08-01T03:46:29;15.80;;;6.07;;
23782;SDS011;12071;50.850;4.446;2023-08-01T03:48:55;11.88;;;6.03;;
23782;SDS011;12071;50.850;4.446;2023-08-01T03:51:20;15.60;;;6.07;;
23782;SDS011;12071;50.850;4.446;2023-08-01T03:53:46;14.50;;;6.00;;
23782;SDS011;12071;50.850;4.446;2023-08-01T03:56:12;15.50;;;6.53;;
23782;SDS011;12071;50.850;4.446;2023-08-01T03:58:38;15.70;;;6.43;;
23782;SDS011;12071;50.850;4.446;2023-08-01T04:01:04;15.18;;;6.35;;
23782;SDS011;12071;50.850;4.446;2023-08-01T04:03:31;17.00;;;6.60;;
23782;SDS011;12071;50.850;4.446;2023-08-01T04:05:57;15.13;;;6.00;;
23782;SDS011;12071;50.850;4.446;2023-08-01T04:08:23;16.25;;;7.13;;
23782;SDS011;12071;50.850;4.446;2023-08-01T04:10:48;18.00;;;6.90;;
23782;SDS011;12071;50.850;4.446;2023-08-01T04:13:15;20.20;;;7.20;;
23782;SDS011;12071;50.850;4.446;2023-08-01T04:15:41;19.35;;;7.43;;
23782;SDS011;12071;50.850;4.446;2023-08-01T04:18:06;13.57;;;7.05;;
23782;SDS011;12071;50.850;4.446;2023-08-01T04:20:32;19.88;;;6.82;;
23782;SDS011;12071;50.850;4.446;2023-08-01T04:22:57;16.02;;;6.22;;
23782;SDS011;12071;50.850;4.446;2023-08-01T04:25:23;18.05;;;6.93;;
23782;SDS011;12071;50.850;4.446;2023-08-01T04:27:50;14.43;;;7.10;;
23782;SDS011;12071;50.850;4.446;2023-08-01T04:30:15;18.08;;;7.55;;
23782;SDS011;12071;50.850;4.446;2023-08-01T04:32:41;13.35;;;8.60;;
23782;SDS011;12071;50.850;4.446;2023-08-01T04:35:07;16.33;;;7.05;;
23782;SDS011;12071;50.850;4.446;2023-08-01T04:37:32;14.55;;;7.60;;
23782;SDS011;12071;50.850;4.446;2023-08-01T04:39:58;20.90;;;7.07;;
23782;SDS011;12071;50.850;4.446;2023-08-01T04:42:24;17.33;;;6.78;;
23782;SDS011;12071;50.850;4.446;2023-08-01T04:44:49;18.95;;;7.65;;
23782;SDS011;12071;50.850;4.446;2023-08-01T04:47:15;16.92;;;7.35;;
23782;SDS011;12071;50.850;4.446;2023-08-01T04:49:40;16.00;;;6.57;;
23782;SDS011;12071;50.850;4.446;2023-08-01T04:52:06;16.02;;;7.97;;
23782;SDS011;12071;50.850;4.446;2023-08-01T04:54:32;20.65;;;7.50;;
23782;SDS011;12071;50.850;4.446;2023-08-01T04:56:58;18.10;;;7.20;;
23782;SDS011;12071;50.850;4.446;2023-08-01T04:59:23;16.17;;;7.22;;
23782;SDS011;12071;50.850;4.446;2023-08-01T05:01:49;18.15;;;7.80;;
23782;SDS011;12071;50.850;4.446;2023-08-01T05:04:14;18.98;;;7.85;;
23782;SDS011;12071;50.850;4.446;2023-08-01T05:06:40;19.40;;;7.43;;
23782;SDS011;12071;50.850;4.446;2023-08-01T05:09:05;14.85;;;7.07;;
23782;SDS011;12071;50.850;4.446;2023-08-01T05:11:32;15.35;;;7.20;;
23782;SDS011;12071;50.850;4.446;2023-08-01T05:13:58;14.63;;;6.97;;
23782;SDS011;12071;50.850;4.446;2023-08-01T05:16:24;15.10;;;6.60;;
23782;SDS011;12071;50.850;4.446;2023-08-01T05:18:49;17.83;;;7.13;;
23782;SDS011;12071;50.850;4.446;2023-08-01T05:21:15;13.98;;;6.80;;
23782;SDS011;12071;50.850;4.446;2023-08-01T05:23:40;17.75;;;6.70;;
23782;SDS011;12071;50.850;4.446;2023-08-01T05:26:07;14.45;;;6.57;;
23782;SDS011;12071;50.850;4.446;2023-08-01T05:28:33;17.65;;;7.03;;
23782;SDS011;12071;50.850;4.446;2023-08-01T05:30:58;18.50;;;6.95;;
23782;SDS011;12071;50.850;4.446;2023-08-01T05:33:24;15.13;;;6.28;;
23782;SDS011;12071;50.850;4.446;2023-08-01T05:35:50;18.45;;;6.78;;
23782;SDS011;12071;50.850;4.446;2023-08-01T05:38:15;20.25;;;6.55;;
23782;SDS011;12071;50.850;4.446;2023-08-01T05:40:41;18.00;;;6.47;;
23782;SDS011;12071;50.850;4.446;2023-08-01T05:43:06;17.77;;;6.55;;
23782;SDS011;12071;50.850;4.446;2023-08-01T05:45:34;11.35;;;6.38;;
23782;SDS011;12071;50.850;4.446;2023-08-01T05:48:00;17.33;;;6.45;;
23782;SDS011;12071;50.850;4.446;2023-08-01T05:50:26;15.10;;;6.45;;
23782;SDS011;12071;50.850;4.446;2023-08-01T05:52:52;12.98;;;6.25;;
23782;SDS011;12071;50.850;4.446;2023-08-01T05:55:17;16.55;;;6.45;;
23782;SDS011;12071;50.850;4.446;2023-08-01T05:57:43;15.30;;;6.35;;
23782;SDS011;12071;50.850;4.446;2023-08-01T06:00:09;20.27;;;7.10;;
23782;SDS011;12071;50.850;4.446;2023-08-01T06:02:35;20.05;;;6.53;;
23782;SDS011;12071;50.850;4.446;2023-08-01T06:05:01;15.13;;;5.90;;
23782;SDS011;12071;50.850;4.446;2023-08-01T06:07:26;22.02;;;6.32;;
23782;SDS011;12071;50.850;4.446;2023-08-01T06:09:52;15.80;;;6.30;;
23782;SDS011;12071;50.850;4.446;2023-08-01T06:12:18;14.00;;;6.47;;
23782;SDS011;12071;50.850;4.446;2023-08-01T06:14:44;13.05;;;6.57;;
23782;SDS011;12071;50.850;4.446;2023-08-01T06:17:11;13.63;;;6.10;;
23782;SDS011;12071;50.850;4.446;2023-08-01T06:19:36;15.30;;;6.40;;
23782;SDS011;12071;50.850;4.446;2023-08-01T06:22:02;15.15;;;5.80;;
23782;SDS011;12071;50.850;4.446;2023-08-01T06:24:28;12.38;;;5.53;;
23782;SDS011;12071;50.850;4.446;2023-08-01T06:26:53;14.32;;;5.65;;
23782;SDS011;12071;50.850;4.446;2023-08-01T06:29:19;12.38;;;5.47;;
23782;SDS011;12071;50.850;4.446;2023-08-01T06:31:44;16.75;;;6.22;;
23782;SDS011;12071;50.850;4.446;2023-08-01T06:34:10;14.50;;;5.90;;
23782;SDS011;12071;50.850;4.446;2023-08-01T06:36:36;13.18;;;5.55;;
23782;SDS011;12071;50.850;4.446;2023-08-01T06:39:01;18.65;;;5.60;;
23782;SDS011;12071;50.850;4.446;2023-08-01T06:41:28;13.52;;;5.63;;
23782;SDS011;12071;50.850;4.446;2023-08-01T06:43:53;14.85;;;5.95;;
23782;SDS011;12071;50.850;4.446;2023-08-01T06:46:19;18.48;;;7.53;;
23782;SDS011;12071;50.850;4.446;2023-08-01T06:48:44;19.30;;;5.60;;
23782;SDS011;12071;50.850;4.446;2023-08-01T06:51:10;15.65;;;5.97;;
23782;SDS011;12071;50.850;4.446;2023-08-01T06:53:36;16.50;;;5.93;;
23782;SDS011;12071;50.850;4.446;2023-08-01T06:56:01;16.55;;;5.80;;
23782;SDS011;12071;50.850;4.446;2023-08-01T06:58:27;15.02;;;6.15;;
23782;SDS011;12071;50.850;4.446;2023-08-01T07:00:53;12.25;;;5.97;;
23782;SDS011;12071;50.850;4.446;2023-08-01T07:03:18;15.82;;;6.22;;
23782;SDS011;12071;50.850;4.446;2023-08-01T07:05:44;14.93;;;6.30;;
23782;SDS011;12071;50.850;4.446;2023-08-01T07:08:09;14.15;;;5.68;;
23782;SDS011;12071;50.850;4.446;2023-08-01T07:10:35;13.50;;;6.05;;
23782;SDS011;12071;50.850;4.446;2023-08-01T07:13:01;12.43;;;5.60;;
23782;SDS011;12071;50.850;4.446;2023-08-01T07:15:29;11.25;;;5.50;;
23782;SDS011;12071;50.850;4.446;2023-08-01T07:17:55;13.48;;;5.65;;
23782;SDS011;12071;50.850;4.446;2023-08-01T07:20:21;11.27;;;5.80;;
23782;SDS011;12071;50.850;4.446;2023-08-01T07:22:47;14.25;;;5.65;;
23782;SDS011;12071;50.850;4.446;2023-08-01T07:25:12;10.55;;;5.05;;
23782;SDS011;12071;50.850;4.446;2023-08-01T07:27:38;10.25;;;4.88;;
23782;SDS011;12071;50.850;4.446;2023-08-01T07:30:04;9.65;;;4.85;;
23782;SDS011;12071;50.850;4.446;2023-08-01T07:32:31;12.32;;;5.13;;
23782;SDS011;12071;50.850;4.446;2023-08-01T07:34:57;9.68;;;4.60;;
23782;SDS011;12071;50.850;4.446;2023-08-01T07:37:23;12.55;;;4.75;;
23782;SDS011;12071;50.850;4.446;2023-08-01T07:39:49;14.18;;;4.75;;
23782;SDS011;12071;50.850;4.446;2023-08-01T07:42:15;12.15;;;5.15;;
23782;SDS011;12071;50.850;4.446;2023-08-01T07:44:41;12.52;;;4.68;;
23782;SDS011;12071;50.850;4.446;2023-08-01T07:47:06;14.45;;;5.32;;
23782;SDS011;12071;50.850;4.446;2023-08-01T07:49:33;10.93;;;5.10;;
23782;SDS011;12071;50.850;4.446;2023-08-01T07:51:58;13.55;;;5.50;;
23782;SDS011;12071;50.850;4.446;2023-08-01T07:54:24;16.38;;;5.05;;
23782;SDS011;12071;50.850;4.446;2023-08-01T07:56:50;12.82;;;4.47;;
23782;SDS011;12071;50.850;4.446;2023-08-01T07:59:15;16.80;;;5.00;;
23782;SDS011;12071;50.850;4.446;2023-08-01T08:01:41;12.93;;;4.43;;
23782;SDS011;12071;50.850;4.446;2023-08-01T08:04:07;9.50;;;4.80;;
23782;SDS011;12071;50.850;4.446;2023-08-01T08:06:32;17.88;;;4.90;;
23782;SDS011;12071;50.850;4.446;2023-08-01T08:08:58;9.07;;;4.45;;
23782;SDS011;12071;50.850;4.446;2023-08-01T08:11:24;15.13;;;4.90;;
23782;SDS011;12071;50.850;4.446;2023-08-01T08:13:49;9.30;;;4.30;;
23782;SDS011;12071;50.850;4.446;2023-08-01T08:16:15;9.60;;;3.95;;
23782;SDS011;12071;50.850;4.446;2023-08-01T08:18:41;11.65;;;4.28;;
23782;SDS011;12071;50.850;4.446;2023-08-01T08:21:07;10.65;;;4.00;;
23782;SDS011;12071;50.850;4.446;2023-08-01T08:23:32;11.85;;;3.72;;
23782;SDS011;12071;50.850;4.446;2023-08-01T08:25:58;8.63;;;3.75;;
23782;SDS011;12071;50.850;4.446;2023-08-01T08:28:28;6.30;;;2.75;;
23782;SDS011;12071;50.850;4.446;2023-08-01T08:30:55;11.85;;;3.85;;
23782;SDS011;12071;50.850;4.446;2023-08-01T08:33:20;9.02;;;3.42;;
23782;SDS011;12071;50.850;4.446;2023-08-01T08:35:46;10.82;;;3.90;;
23782;SDS011;12071;50.850;4.446;2023-08-01T08:38:12;8.48;;;3.50;;
23782;SDS011;12071;50.850;4.446;2023-08-01T08:40:40;10.25;;;3.20;;
23782;SDS011;12071;50.850;4.446;2023-08-01T08:43:10;9.23;;;3.47;;
23782;SDS011;12071;50.850;4.446;2023-08-01T08:45:36;10.80;;;3.50;;
23782;SDS011;12071;50.850;4.446;2023-08-01T08:48:09;10.00;;;3.17;;
23782;SDS011;12071;50.850;4.446;2023-08-01T08:50:42;5.82;;;2.75;;
23782;SDS011;12071;50.850;4.446;2023-08-01T08:53:09;6.82;;;2.95;;
23782;SDS011;12071;50.850;4.446;2023-08-01T08:55:38;10.20;;;3.00;;
23782;SDS011;12071;50.850;4.446;2023-08-01T08:58:05;8.23;;;2.70;;
23782;SDS011;12071;50.850;4.446;2023-08-01T09:00:31;8.43;;;2.80;;
23782;SDS011;12071;50.850;4.446;2023-08-01T09:02:57;8.27;;;2.30;;
23782;SDS011;12071;50.850;4.446;2023-08-01T09:05:23;8.70;;;2.50;;
23782;SDS011;12071;50.850;4.446;2023-08-01T09:07:52;8.98;;;2.75;;
23782;SDS011;12071;50.850;4.446;2023-08-01T09:10:22;7.80;;;2.40;;
23782;SDS011;12071;50.850;4.446;2023-08-01T09:12:48;6.53;;;2.55;;
23782;SDS011;12071;50.850;4.446;2023-08-01T09:15:14;15.35;;;3.08;;
23782;SDS011;12071;50.850;4.446;2023-08-01T09:17:52;6.43;;;2.55;;
23782;SDS011;12071;50.850;4.446;2023-08-01T09:20:21;8.95;;;2.95;;
23782;SDS011;12071;50.850;4.446;2023-08-01T09:22:47;7.97;;;2.90;;
23782;SDS011;12071;50.850;4.446;2023-08-01T09:25:12;9.38;;;3.13;;
23782;SDS011;12071;50.850;4.446;2023-08-01T09:27:38;11.95;;;3.00;;
23782;SDS011;12071;50.850;4.446;2023-08-01T09:30:04;6.28;;;3.05;;
23782;SDS011;12071;50.850;4.446;2023-08-01T09:32:34;9.73;;;2.57;;
23782;SDS011;12071;50.850;4.446;2023-08-01T09:35:00;10.27;;;2.70;;
23782;SDS011;12071;50.850;4.446;2023-08-01T09:37:25;8.75;;;2.30;;
23782;SDS011;12071;50.850;4.446;2023-08-01T09:39:54;7.93;;;2.00;;
23782;SDS011;12071;50.850;4.446;2023-08-01T09:42:20;7.80;;;1.95;;
23782;SDS011;12071;50.850;4.446;2023-08-01T09:44:46;6.25;;;2.10;;
23782;SDS011;12071;50.850;4.446;2023-08-01T09:47:12;8.35;;;2.22;;
23782;SDS011;12071;50.850;4.446;2023-08-01T09:49:46;4.82;;;2.13;;
23782;SDS011;12071;50.850;4.446;2023-08-01T09:52:14;6.25;;;2.00;;
23782;SDS011;12071;50.850;4.446;2023-08-01T09:54:40;7.10;;;2.08;;
23782;SDS011;12071;50.850;4.446;2023-08-01T09:57:05;4.38;;;1.70;;
23782;SDS011;12071;50.850;4.446;2023-08-01T09:59:32;8.07;;;2.30;;
23782;SDS011;12071;50.850;4.446;2023-08-01T10:01:59;6.15;;;2.13;;
23782;SDS011;12071;50.850;4.446;2023-08-01T10:04:30;5.25;;;1.85;;
23782;SDS011;12071;50.850;4.446;2023-08-01T10:07:00;6.38;;;1.88;;
23782;SDS011;12071;50.850;4.446;2023-08-01T10:09:34;6.43;;;2.30;;
23782;SDS011;12071;50.850;4.446;2023-08-01T10:12:01;9.65;;;2.40;;
23782;SDS011;12071;50.850;4.446;2023-08-01T10:14:27;6.32;;;2.10;;
23782;SDS011;12071;50.850;4.446;2023-08-01T10:16:53;7.18;;;2.03;;
23782;SDS011;12071;50.850;4.446;2023-08-01T10:19:20;6.97;;;1.80;;
23782;SDS011;12071;50.850;4.446;2023-08-01T10:21:47;4.47;;;2.10;;
23782;SDS011;12071;50.850;4.446;2023-08-01T10:24:14;10.40;;;2.28;;
23782;SDS011;12071;50.850;4.446;2023-08-01T10:26:40;5.38;;;2.30;;
23782;SDS011;12071;50.850;4.446;2023-08-01T10:29:09;4.95;;;1.90;;
23782;SDS011;12071;50.850;4.446;2023-08-01T10:31:34;4.97;;;2.15;;
23782;SDS011;12071;50.850;4.446;2023-08-01T10:34:07;7.45;;;2.00;;
23782;SDS011;12071;50.850;4.446;2023-08-01T10:36:37;5.50;;;1.70;;
23782;SDS011;12071;50.850;4.446;2023-08-01T10:39:03;8.85;;;2.17;;
23782;SDS011;12071;50.850;4.446;2023-08-01T10:41:32;4.10;;;1.63;;
23782;SDS011;12071;50.850;4.446;2023-08-01T10:44:12;5.00;;;1.67;;
23782;SDS011;12071;50.850;4.446;2023-08-01T10:46:49;3.65;;;1.52;;
23782;SDS011;12071;50.850;4.446;2023-08-01T10:49:18;9.38;;;1.77;;
23782;SDS011;12071;50.850;4.446;2023-08-01T10:51:46;8.75;;;1.77;;
23782;SDS011;12071;50.850;4.446;2023-08-01T10:54:19;7.22;;;2.40;;
23782;SDS011;12071;50.850;4.446;2023-08-01T10:56:46;6.18;;;1.70;;
23782;SDS011;12071;50.850;4.446;2023-08-01T10:59:13;6.90;;;1.73;;
23782;SDS011;12071;50.850;4.446;2023-08-01T11:01:52;4.30;;;1.67;;
23782;SDS011;12071;50.850;4.446;2023-08-01T11:04:19;5.82;;;1.70;;
23782;SDS011;12071;50.850;4.446;2023-08-01T11:06:47;7.13;;;1.65;;
23782;SDS011;12071;50.850;4.446;2023-08-01T11:09:23;6.25;;;1.90;;
23782;SDS011;12071;50.850;4.446;2023-08-01T11:11:54;5.68;;;2.03;;
23782;SDS011;12071;50.850;4.446;2023-08-01T11:14:26;9.15;;;1.80;;
23782;SDS011;12071;50.850;4.446;2023-08-01T11:16:56;5.60;;;1.50;;
23782;SDS011;12071;50.850;4.446;2023-08-01T11:19:23;5.03;;;1.98;;
23782;SDS011;12071;50.850;4.446;2023-08-01T11:21:49;7.05;;;1.98;;
23782;SDS011;12071;50.850;4.446;2023-08-01T11:24:17;7.15;;;1.70;;
23782;SDS011;12071;50.850;4.446;2023-08-01T11:26:43;7.60;;;1.65;;
23782;SDS011;12071;50.850;4.446;2023-08-01T11:29:12;4.97;;;1.50;;
23782;SDS011;12071;50.850;4.446;2023-08-01T11:31:39;6.10;;;1.70;;
23782;SDS011;12071;50.850;4.446;2023-08-01T11:34:08;4.15;;;1.40;;
23782;SDS011;12071;50.850;4.446;2023-08-01T11:36:35;7.47;;;1.30;;
23782;SDS011;12071;50.850;4.446;2023-08-01T11:39:01;5.10;;;1.33;;
23782;SDS011;12071;50.850;4.446;2023-08-01T11:41:27;4.68;;;1.33;;
23782;SDS011;12071;50.850;4.446;2023-08-01T11:43:53;8.10;;;1.40;;
23782;SDS011;12071;50.850;4.446;2023-08-01T11:46:22;3.45;;;1.23;;
23782;SDS011;12071;50.850;4.446;2023-08-01T11:48:55;3.75;;;1.23;;
23782;SDS011;12071;50.850;4.446;2023-08-01T11:51:20;3.95;;;1.40;;
23782;SDS011;12071;50.850;4.446;2023-08-01T11:53:46;7.18;;;1.58;;
23782;SDS011;12071;50.850;4.446;2023-08-01T11:56:19;3.15;;;1.17;;
23782;SDS011;12071;50.850;4.446;2023-08-01T11:58:46;5.57;;;1.35;;
23782;SDS011;12071;50.850;4.446;2023-08-01T12:01:12;7.50;;;1.60;;
23782;SDS011;12071;50.850;4.446;2023-08-01T12:03:46;7.07;;;1.02;;
23782;SDS011;12071;50.850;4.446;2023-08-01T12:06:13;3.33;;;1.00;;
23782;SDS011;12071;50.850;4.446;2023-08-01T12:08:44;6.32;;;1.55;;
23782;SDS011;12071;50.850;4.446;2023-08-01T12:11:23;4.28;;;1.40;;
23782;SDS011;12071;50.850;4.446;2023-08-01T12:14:00;5.38;;;1.38;;
23782;SDS011;12071;50.850;4.446;2023-08-01T12:16:29;5.05;;;1.27;;
23782;SDS011;12071;50.850;4.446;2023-08-01T12:18:55;5.35;;;1.42;;
23782;SDS011;12071;50.850;4.446;2023-08-01T12:21:21;6.57;;;1.40;;
23782;SDS011;12071;50.850;4.446;2023-08-01T12:23:47;6.88;;;1.52;;
23782;SDS011;12071;50.850;4.446;2023-08-01T12:26:12;5.30;;;1.23;;
23782;SDS011;12071;50.850;4.446;2023-08-01T12:28:38;6.53;;;1.67;;
23782;SDS011;12071;50.850;4.446;2023-08-01T12:31:04;5.88;;;1.50;;
23782;SDS011;12071;50.850;4.446;2023-08-01T12:33:29;4.63;;;1.60;;
23782;SDS011;12071;50.850;4.446;2023-08-01T12:35:56;4.45;;;1.17;;
23782;SDS011;12071;50.850;4.446;2023-08-01T12:38:21;4.53;;;1.10;;
23782;SDS011;12071;50.850;4.446;2023-08-01T12:40:47;4.07;;;1.38;;
23782;SDS011;12071;50.850;4.446;2023-08-01T12:43:13;6.30;;;1.55;;
23782;SDS011;12071;50.850;4.446;2023-08-01T12:45:41;6.28;;;1.33;;
23782;SDS011;12071;50.850;4.446;2023-08-01T12:48:07;3.78;;;1.58;;
23782;SDS011;12071;50.850;4.446;2023-08-01T12:50:32;6.97;;;1.60;;
23782;SDS011;12071;50.850;4.446;2023-08-01T12:52:58;3.78;;;1.50;;
23782;SDS011;12071;50.850;4.446;2023-08-01T12:55:23;4.60;;;1.08;;
23782;SDS011;12071;50.850;4.446;2023-08-01T12:57:49;4.10;;;1.45;;
23782;SDS011;12071;50.850;4.446;2023-08-01T13:00:15;5.28;;;1.30;;
23782;SDS011;12071;50.850;4.446;2023-08-01T13:02:41;4.53;;;1.20;;
23782;SDS011;12071;50.850;4.446;2023-08-01T13:05:07;5.38;;;1.55;;
23782;SDS011;12071;50.850;4.446;2023-08-01T13:07:32;4.38;;;1.33;;
23782;SDS011;12071;50.850;4.446;2023-08-01T13:10:00;7.82;;;1.50;;
23782;SDS011;12071;50.850;4.446;2023-08-01T13:12:26;4.47;;;1.60;;
23782;SDS011;12071;50.850;4.446;2023-08-01T13:14:51;4.22;;;1.30;;
23782;SDS011;12071;50.850;4.446;2023-08-01T13:17:17;4.55;;;1.50;;
23782;SDS011;12071;50.850;4.446;2023-08-01T13:19:43;3.63;;;1.38;;
23782;SDS011;12071;50.850;4.446;2023-08-01T13:22:09;6.68;;;1.50;;
23782;SDS011;12071;50.850;4.446;2023-08-01T13:24:34;4.38;;;1.50;;
23782;SDS011;12071;50.850;4.446;2023-08-01T13:27:00;4.63;;;1.33;;
23782;SDS011;12071;50.850;4.446;2023-08-01T13:29:25;5.45;;;1.20;;
23782;SDS011;12071;50.850;4.446;2023-08-01T13:31:51;7.10;;;1.58;;
23782;SDS011;12071;50.850;4.446;2023-08-01T13:34:17;6.63;;;1.52;;
23782;SDS011;12071;50.850;4.446;2023-08-01T13:36:42;7.38;;;1.63;;
23782;SDS011;12071;50.850;4.446;2023-08-01T13:39:08;5.10;;;1.70;;
23782;SDS011;12071;50.850;4.446;2023-08-01T13:41:34;7.35;;;1.80;;
23782;SDS011;12071;50.850;4.446;2023-08-01T13:44:00;5.43;;;1.70;;
23782;SDS011;12071;50.850;4.446;2023-08-01T13:46:27;6.40;;;1.70;;
23782;SDS011;12071;50.850;4.446;2023-08-01T13:48:52;4.05;;;1.50;;
23782;SDS011;12071;50.850;4.446;2023-08-01T13:51:18;4.00;;;1.40;;
23782;SDS011;12071;50.850;4.446;2023-08-01T13:53:44;3.42;;;1.55;;
23782;SDS011;12071;50.850;4.446;2023-08-01T13:56:09;6.25;;;1.50;;
23782;SDS011;12071;50.850;4.446;2023-08-01T13:58:36;7.00;;;1.42;;
23782;SDS011;12071;50.850;4.446;2023-08-01T14:01:03;4.25;;;1.50;;
23782;SDS011;12071;50.850;4.446;2023-08-01T14:03:30;4.18;;;1.45;;
23782;SDS011;12071;50.850;4.446;2023-08-01T14:05:56;6.78;;;1.55;;
23782;SDS011;12071;50.850;4.446;2023-08-01T14:08:27;3.45;;;1.30;;
23782;SDS011;12071;50.850;4.446;2023-08-01T14:10:53;9.45;;;1.70;;
23782;SDS011;12071;50.850;4.446;2023-08-01T14:13:19;4.68;;;1.50;;
23782;SDS011;12071;50.850;4.446;2023-08-01T14:15:44;5.00;;;1.58;;
23782;SDS011;12071;50.850;4.446;2023-08-01T14:18:10;4.93;;;1.23;;
23782;SDS011;12071;50.850;4.446;2023-08-01T14:20:35;8.32;;;1.70;;
23782;SDS011;12071;50.850;4.446;2023-08-01T14:23:01;4.25;;;1.38;;
23782;SDS011;12071;50.850;4.446;2023-08-01T14:25:26;3.13;;;0.95;;
23782;SDS011;12071;50.850;4.446;2023-08-01T14:27:52;4.35;;;1.00;;
23782;SDS011;12071;50.850;4.446;2023-08-01T14:30:17;3.05;;;0.93;;
23782;SDS011;12071;50.850;4.446;2023-08-01T14:32:43;3.80;;;1.20;;
23782;SDS011;12071;50.850;4.446;2023-08-01T14:35:09;4.13;;;0.90;;
23782;SDS011;12071;50.850;4.446;2023-08-01T14:37:35;4.50;;;1.20;;
23782;SDS011;12071;50.850;4.446;2023-08-01T14:40:01;4.70;;;1.20;;